Time;durP1;ratioP1;P1;durP2;ratioP2;P2;SDS_P1;SDS_P2;PMS_P1;PMS_P2;Temp;Humidity;BMP_temperature;BMP_pressure;BME280_temperature;BME280_humidity;BME280_pressure;Samples;Min_cycle;Max_cycle;Signal;HPM_P1;HPM_P2
2022/07/18 00:03:08;;;;;;;2.28;0.90;;;;;;;17.80;45.81;101376.94;18354269;32;20098;-56
2022/07/18 00:13:13;;;;;;;2.62;0.88;;;;;;;18.10;45.53;101374.69;18356120;32;20107;-56
2022/07/18 00:23:17;;;;;;;1.17;0.85;;;;;;;17.92;46.48;101378.47;18355586;31;20093;-55
2022/07/18 00:33:21;;;;;;;1.35;0.70;;;;;;;18.09;45.35;101383.53;18354012;32;20119;-56
2022/07/18 00:43:24;;;;;;;1.37;0.80;;;;;;;18.29;44.97;101376.09;18354565;32;20860;-56
2022/07/18 00:53:30;;;;;;;0.95;0.73;;;;;;;18.30;44.93;101384.88;18353586;32;20137;-56
2022/07/18 01:03:33;;;;;;;1.75;0.80;;;;;;;18.27;45.06;101391.12;18352933;32;20110;-56
2022/07/18 01:13:38;;;;;;;0.80;0.80;;;;;;;17.98;46.10;101403.03;18406173;31;20118;-55
2022/07/18 01:23:43;;;;;;;1.73;1.00;;;;;;;17.87;45.58;101404.97;18351825;31;20117;-55
2022/07/18 01:33:46;;;;;;;0.85;0.80;;;;;;;17.46;46.88;101396.84;18351254;31;20115;-55
2022/07/18 01:43:51;;;;;;;2.33;0.75;;;;;;;17.32;47.56;101405.81;18352790;32;20107;-56
2022/07/18 01:53:58;;;;;;;1.75;0.80;;;;;;;17.28;48.28;101401.50;18360597;32;20129;-55
2022/07/18 02:04:02;;;;;;;0.90;0.90;;;;;;;16.75;49.03;101406.53;18360210;31;20097;-55
2022/07/18 02:14:06;;;;;;;1.50;1.10;;;;;;;17.11;47.46;101400.84;18359145;32;20390;-55
2022/07/18 02:24:11;;;;;;;1.90;1.20;;;;;;;17.19;47.09;101396.34;18357664;32;20106;-56
2022/07/18 02:34:14;;;;;;;1.95;0.77;;;;;;;16.95;47.38;101422.09;18357397;32;20112;-56
2022/07/18 02:44:19;;;;;;;0.70;0.70;;;;;;;17.35;45.91;101418.09;18356845;32;20106;-56
2022/07/18 02:54:22;;;;;;;1.52;0.95;;;;;;;16.88;49.25;101431.88;18356217;32;20097;-55
2022/07/18 03:04:27;;;;;;;1.92;1.00;;;;;;;17.26;46.63;101421.75;18356040;32;20195;-55
2022/07/18 03:14:30;;;;;;;1.67;0.85;;;;;;;17.16;47.89;101426.28;18355852;32;20120;-55
2022/07/18 03:24:35;;;;;;;1.92;0.93;;;;;;;16.88;47.43;101430.97;18355701;32;20112;-55
2022/07/18 03:34:38;;;;;;;2.03;0.93;;;;;;;17.26;46.50;101437.59;18355033;32;20092;-56
2022/07/18 03:44:42;;;;;;;4.00;1.10;;;;;;;17.45;46.01;101437.31;18354840;32;20455;-56
2022/07/18 03:54:46;;;;;;;1.40;0.90;;;;;;;17.59;45.91;101439.72;18392934;31;69400;-56
2022/07/18 04:04:50;;;;;;;1.92;1.02;;;;;;;18.00;44.99;101442.63;18623319;31;20099;-55
2022/07/18 04:14:53;;;;;;;3.17;1.20;;;;;;;17.95;45.39;101455.06;18622668;31;20091;-55
2022/07/18 04:24:59;;;;;;;1.65;0.80;;;;;;;19.07;42.96;101448.62;18622765;31;20451;-55
2022/07/18 04:35:02;;;;;;;1.83;1.00;;;;;;;19.23;43.04;101454.47;18622500;31;20185;-55
2022/07/18 04:45:08;;;;;;;5.70;1.12;;;;;;;19.80;42.29;101457.59;18621899;31;20489;-56
2022/07/18 04:55:12;;;;;;;8.90;2.30;;;;;;;20.54;41.53;101458.44;18621317;31;20447;-55
2022/07/18 05:05:18;;;;;;;1.92;0.70;;;;;;;21.55;37.84;101460.84;18620577;31;20100;-55
2022/07/18 05:15:23;;;;;;;1.35;0.80;;;;;;;22.09;36.26;101456.47;18619992;31;20448;-55
2022/07/18 05:25:28;;;;;;;2.55;0.80;;;;;;;22.54;35.15;101448.78;18626795;31;20111;-55
2022/07/18 05:35:31;;;;;;;3.95;1.30;;;;;;;22.91;34.01;101459.84;18487010;31;20097;-56
2022/07/18 05:45:36;;;;;;;2.70;1.10;;;;;;;23.35;32.64;101465.31;18359252;32;20165;-56
2022/07/18 05:55:40;;;;;;;1.85;0.70;;;;;;;22.90;32.78;101461.63;18358826;32;20108;-55
2022/07/18 06:05:44;;;;;;;2.40;0.90;;;;;;;24.02;31.14;101454.59;18357828;32;20135;-56
2022/07/18 06:15:48;;;;;;;0.68;0.68;;;;;;;24.10;30.33;101459.66;18357286;32;20165;-56
2022/07/18 06:25:52;;;;;;;2.30;0.90;;;;;;;24.71;30.95;101459.69;18357913;32;20094;-56
2022/07/18 06:35:55;;;;;;;1.75;0.62;;;;;;;24.89;30.91;101452.69;18408812;31;20093;-56
2022/07/18 06:46:00;;;;;;;2.92;0.90;;;;;;;25.12;31.11;101454.28;18355394;32;20669;-56
2022/07/18 06:56:05;;;;;;;0.98;0.70;;;;;;;25.25;30.80;101441.22;18356737;31;20414;-56
2022/07/18 07:06:09;;;;;;;1.48;0.60;;;;;;;25.87;29.76;101432.88;18354488;32;20112;-56
2022/07/18 07:16:13;;;;;;;2.22;0.62;;;;;;;26.41;28.68;101412.31;18353482;32;20089;-56
2022/07/18 07:26:17;;;;;;;1.45;0.65;;;;;;;26.55;27.63;101406.22;18407133;31;20366;-56
2022/07/18 07:36:21;;;;;;;4.47;0.85;;;;;;;26.89;27.33;101409.78;18355081;32;20093;-56
2022/07/18 07:46:26;;;;;;;2.45;0.60;;;;;;;27.42;25.28;101404.16;18406573;31;20108;-57
2022/07/18 07:56:29;;;;;;;1.58;0.75;;;;;;;26.60;25.72;101380.94;18353964;32;20119;-56
2022/07/18 08:06:34;;;;;;;3.95;1.00;;;;;;;26.49;25.27;101379.81;18404015;31;20093;-56
2022/07/18 08:16:37;;;;;;;2.50;0.75;;;;;;;27.62;24.61;101388.75;18404977;31;20404;-57
2022/07/18 08:26:41;;;;;;;4.00;1.00;;;;;;;29.10;23.90;101383.28;18347594;32;20182;-56
2022/07/18 08:36:45;;;;;;;0.82;0.70;;;;;;;28.91;21.48;101379.09;18403057;31;20115;-56
2022/07/18 08:46:51;;;;;;;2.25;0.77;;;;;;;29.20;21.96;101376.34;18397440;31;20130;-56
2022/07/18 08:56:54;;;;;;;3.45;1.10;;;;;;;28.69;21.57;101376.91;18417597;31;20105;-56
2022/07/18 09:06:59;;;;;;;2.60;0.65;;;;;;;30.01;22.53;101372.78;18372005;32;20141;-56
2022/07/18 09:17:04;;;;;;;1.77;0.68;;;;;;;29.90;20.61;101370.84;18425831;31;20108;-56
2022/07/18 09:27:23;;;;;;;1.92;0.80;;;;;;;29.16;21.07;101364.06;18371239;32;20185;-56
2022/07/18 09:37:27;;;;;;;3.42;0.60;;;;;;;30.95;19.46;101356.34;18370639;32;20085;-57
2022/07/18 09:47:31;;;;;;;1.52;0.65;;;;;;;31.47;18.99;101362.37;18370435;32;20135;-57
2022/07/18 09:57:36;;;;;;;1.98;0.70;;;;;;;31.28;19.08;101358.38;18423691;31;20342;-56
2022/07/18 10:07:41;;;;;;;1.33;0.60;;;;;;;32.13;18.34;101336.62;18416115;31;20104;-56
2022/07/18 10:17:44;;;;;;;2.03;0.70;;;;;;;32.51;17.56;101340.81;18410918;31;20097;-56
2022/07/18 10:27:54;;;;;;;0.95;0.60;;;;;;;32.87;16.98;101331.66;18357095;32;20094;-56
2022/07/18 10:38:03;;;;;;;3.33;0.62;;;;;;;33.30;16.35;101329.94;18356450;32;20120;-56
2022/07/18 10:48:40;;;;;;;2.00;0.57;;;;;;;33.53;16.23;101310.88;18409378;31;20105;-57
2022/07/18 10:58:45;;;;;;;1.98;0.77;;;;;;;32.30;16.03;101300.19;18352506;32;20133;-56
2022/07/18 11:08:48;;;;;;;1.65;0.68;;;;;;;32.06;17.24;101287.66;18355918;32;20098;-57
2022/07/18 11:19:19;;;;;;;1.23;0.77;;;;;;;33.29;14.51;101274.97;18353359;32;20097;-56
2022/07/18 11:29:22;;;;;;;1.92;0.60;;;;;;;33.42;13.66;101252.28;18355752;32;20124;-56
2022/07/18 11:39:31;;;;;;;0.80;0.40;;;;;;;31.67;16.19;101247.47;18407300;31;20453;-56
2022/07/18 11:49:36;;;;;;;1.75;0.60;;;;;;;33.43;13.22;101232.34;18407395;31;20141;-56
2022/07/18 11:59:43;;;;;;;3.67;0.73;;;;;;;33.74;13.52;101216.13;18407013;31;20119;-56
2022/07/18 12:09:47;;;;;;;4.10;0.60;;;;;;;34.10;12.16;101205.75;18352592;32;20098;-56
2022/07/18 12:19:52;;;;;;;1.60;0.55;;;;;;;32.88;12.79;101203.59;18405944;31;20082;-56
2022/07/18 12:30:11;;;;;;;1.73;0.73;;;;;;;31.14;14.22;101199.41;18405592;31;20093;-56
2022/07/18 12:40:16;;;;;;;0.70;0.40;;;;;;;32.50;13.19;101187.78;18351551;32;20123;-56
2022/07/18 12:50:29;;;;;;;2.95;0.50;;;;;;;32.85;12.21;101174.97;18351305;31;20073;-56
2022/07/18 13:00:34;;;;;;;1.33;0.70;;;;;;;32.17;13.27;101170.69;18405138;31;20390;-56
2022/07/18 13:10:39;;;;;;;1.58;0.45;;;;;;;31.66;14.17;101156.72;18403526;31;20109;-56
2022/07/18 13:20:44;;;;;;;1.23;0.62;;;;;;;32.61;13.33;101146.38;18403654;31;20421;-56
2022/07/18 13:30:47;;;;;;;0.50;0.50;;;;;;;32.63;13.49;101130.88;18391557;31;20098;-56
2022/07/18 13:40:52;;;;;;;1.27;0.62;;;;;;;33.69;13.58;101124.50;18369144;31;20107;-57
2022/07/18 13:50:55;;;;;;;1.45;0.55;;;;;;;31.61;14.87;101126.56;18359505;32;20178;-56
2022/07/18 14:01:00;;;;;;;0.62;0.47;;;;;;;32.92;15.25;101110.47;18411470;31;20129;-56
2022/07/18 14:11:03;;;;;;;1.10;0.45;;;;;;;33.04;14.91;101097.72;18410857;31;20094;-56
2022/07/18 14:21:08;;;;;;;2.47;0.65;;;;;;;32.21;15.49;101110.03;18358324;32;20097;-58
2022/07/18 14:31:19;;;;;;;3.75;0.60;;;;;;;32.25;15.38;101100.69;18356773;32;20141;-56
2022/07/18 14:41:24;;;;;;;0.88;0.52;;;;;;;31.69;16.96;101080.06;18373890;31;20093;-57
2022/07/18 14:51:27;;;;;;;2.37;0.70;;;;;;;31.28;16.30;101079.72;18356210;32;20208;-57
2022/07/18 15:01:32;;;;;;;0.80;0.52;;;;;;;31.59;16.69;101069.19;18354910;32;20463;-56
2022/07/18 15:11:36;;;;;;;3.17;0.57;;;;;;;31.55;16.00;101052.38;18356853;32;20377;-56
2022/07/18 15:21:41;;;;;;;0.82;0.50;;;;;;;32.45;16.18;101052.25;18356271;32;20098;-56
2022/07/18 15:31:44;;;;;;;1.75;0.70;;;;;;;31.60;16.50;101043.03;18356396;32;20116;-56
2022/07/18 15:41:52;;;;;;;0.73;0.47;;;;;;;32.71;15.31;101021.25;18356719;31;20097;-57
2022/07/18 15:51:55;;;;;;;1.35;0.60;;;;;;;31.83;16.23;101017.75;18410660;31;20097;-56
2022/07/18 16:02:00;;;;;;;1.02;0.60;;;;;;;32.35;16.00;101016.19;18355818;32;20121;-57
2022/07/18 16:12:04;;;;;;;1.40;0.65;;;;;;;32.67;15.12;101013.41;18356275;32;20085;-56
2022/07/18 16:22:08;;;;;;;3.50;0.90;;;;;;;31.68;16.58;101005.50;18356736;32;20077;-56
2022/07/18 16:32:13;;;;;;;1.50;0.60;;;;;;;32.32;15.24;101002.91;18409099;31;20089;-56
2022/07/18 16:42:18;;;;;;;2.00;0.52;;;;;;;31.47;16.46;100997.31;18355657;32;20124;-56
2022/07/18 16:52:21;;;;;;;0.77;0.60;;;;;;;31.81;16.02;100986.47;18353874;32;20101;-57
2022/07/18 17:02:26;;;;;;;0.90;0.60;;;;;;;31.79;16.67;100988.41;18353114;31;20102;-56
2022/07/18 17:12:30;;;;;;;7.62;0.90;;;;;;;32.01;17.14;100982.06;18407536;31;20129;-56
2022/07/18 17:22:35;;;;;;;2.37;0.70;;;;;;;31.77;18.85;100984.97;18414201;31;20152;-56
2022/07/18 17:32:40;;;;;;;1.52;0.75;;;;;;;31.35;18.84;100985.69;18361829;32;20183;-56
2022/07/18 17:42:45;;;;;;;3.70;0.60;;;;;;;31.23;20.14;100998.31;18356825;32;20084;-56
2022/07/18 17:52:49;;;;;;;2.17;1.00;;;;;;;30.60;22.24;101000.47;18361425;32;20453;-56
2022/07/18 18:02:53;;;;;;;2.50;0.75;;;;;;;30.13;25.02;101013.06;18360842;32;20098;-56
2022/07/18 18:12:57;;;;;;;3.33;0.80;;;;;;;29.61;26.76;101021.34;18361692;31;20111;-56
2022/07/18 18:23:01;;;;;;;4.85;0.90;;;;;;;28.99;27.93;101012.28;18414104;31;20133;-56
2022/07/18 18:33:05;;;;;;;3.08;0.93;;;;;;;28.24;29.16;101020.03;18360844;32;20097;-56
2022/07/18 18:43:10;;;;;;;2.03;0.70;;;;;;;27.61;29.71;101022.34;18413193;31;20097;-56
2022/07/18 18:53:13;;;;;;;3.65;0.90;;;;;;;27.04;31.59;101034.81;18412862;31;20101;-56
2022/07/18 19:03:18;;;;;;;6.12;2.67;;;;;;;26.49;32.33;101040.69;18359530;32;20108;-56
2022/07/18 19:13:22;;;;;;;2.60;1.27;;;;;;;25.91;32.43;101061.81;18412129;31;20157;-56
2022/07/18 19:23:27;;;;;;;1.92;0.90;;;;;;;25.41;32.92;101060.97;18354158;31;20175;-56
2022/07/18 19:33:31;;;;;;;1.67;0.93;;;;;;;24.75;33.33;101064.37;18398062;31;20361;-56
2022/07/18 19:43:38;;;;;;;2.50;1.27;;;;;;;24.33;34.04;101071.81;18350107;32;20116;-57
2022/07/18 19:53:42;;;;;;;3.72;1.05;;;;;;;23.96;34.27;101074.44;18332693;31;20085;-56
2022/07/18 20:03:46;;;;;;;6.40;1.23;;;;;;;23.07;37.30;101082.91;18352536;32;20123;-56
2022/07/18 20:13:49;;;;;;;4.68;1.25;;;;;;;23.16;37.01;101088.75;18407676;31;20085;-56
2022/07/18 20:23:54;;;;;;;3.92;1.10;;;;;;;23.00;38.33;101078.78;18405475;31;20097;-57
2022/07/18 20:33:57;;;;;;;2.75;0.95;;;;;;;22.86;38.36;101093.56;18353818;32;20119;-56
2022/07/18 20:44:02;;;;;;;2.67;0.98;;;;;;;22.54;38.69;101093.12;18405323;31;20463;-56
2022/07/18 20:54:05;;;;;;;4.07;1.10;;;;;;;22.42;39.15;101096.25;18403611;31;20097;-57
2022/07/18 21:04:11;;;;;;;4.00;1.50;;;;;;;21.97;39.68;101098.91;18350395;32;20100;-56
2022/07/18 21:24:36;;;;;;;3.70;1.48;;;;;;;21.56;41.21;101109.28;18350937;32;20097;-56
2022/07/18 21:34:39;;;;;;;4.20;1.50;;;;;;;21.26;41.86;101110.34;18349750;32;20094;-57
2022/07/18 21:44:44;;;;;;;3.65;1.55;;;;;;;21.13;41.60;101098.44;18346104;32;20125;-56
2022/07/18 21:54:47;;;;;;;4.68;1.45;;;;;;;20.84;41.84;101111.78;18347149;32;20384;-56
2022/07/18 22:04:52;;;;;;;4.70;1.40;;;;;;;20.63;42.63;101098.28;18355535;32;20097;-56
2022/07/18 22:14:55;;;;;;;4.15;1.85;;;;;;;20.57;42.78;101114.41;18358362;32;20104;-56
2022/07/18 22:25:00;;;;;;;3.17;1.52;;;;;;;20.35;43.59;101104.50;18413872;31;20166;-56
2022/07/18 22:35:03;;;;;;;2.78;1.20;;;;;;;20.04;44.73;101089.56;18357276;32;20097;-56
2022/07/18 22:45:16;;;;;;;3.07;1.23;;;;;;;20.01;44.89;101110.00;18358429;32;20119;-56
2022/07/18 22:55:19;;;;;;;2.58;1.50;;;;;;;19.71;46.00;101091.44;18356140;31;20109;-56
2022/07/18 23:05:25;;;;;;;5.50;1.70;;;;;;;19.58;46.61;101112.94;18353696;32;20376;-56
2022/07/18 23:15:30;;;;;;;3.08;1.30;;;;;;;19.57;46.57;101110.38;18353515;31;20405;-56
2022/07/18 23:25:35;;;;;;;2.92;1.25;;;;;;;19.38;46.13;101095.84;18353851;32;20089;-55
2022/07/18 23:35:38;;;;;;;2.55;1.30;;;;;;;19.34;46.24;101103.91;18355294;32;20113;-55
2022/07/18 23:45:43;;;;;;;2.53;1.20;;;;;;;18.93;47.75;101104.97;18354987;32;20082;-56
2022/07/18 23:55:47;;;;;;;2.37;1.30;;;;;;;18.70;48.23;101109.09;18354559;32;20109;-56
